sensor_id;sensor_type;location;lat;lon;timestamp;temperature;humidity
25328;DHT22;13279;51.300;12.394;2023-04-15T00:00:34;7.10;99.90
25328;DHT22;13279;51.300;12.394;2023-04-15T00:03:05;7.10;99.90
25328;DHT22;13279;51.300;12.394;2023-04-15T00:05:36;7.10;99.90
25328;DHT22;13279;51.300;12.394;2023-04-15T00:08:04;7.10;99.90
25328;DHT22;13279;51.300;12.394;2023-04-15T00:10:37;7.10;99.90
25328;DHT22;13279;51.300;12.394;2023-04-15T00:13:11;7.10;99.90
25328;DHT22;13279;51.300;12.394;2023-04-15T00:15:40;7.10;99.90
25328;DHT22;13279;51.300;12.394;2023-04-15T00:18:09;7.10;99.90
25328;DHT22;13279;51.300;12.394;2023-04-15T00:20:41;7.10;99.90
25328;DHT22;13279;51.300;12.394;2023-04-15T00:23:14;7.10;99.90
25328;DHT22;13279;51.300;12.394;2023-04-15T00:25:45;7.10;99.90
25328;DHT22;13279;51.300;12.394;2023-04-15T00:28:18;7.00;99.90
25328;DHT22;13279;51.300;12.394;2023-04-15T00:30:54;7.00;99.90
25328;DHT22;13279;51.300;12.394;2023-04-15T00:33:31;7.00;99.90
25328;DHT22;13279;51.300;12.394;2023-04-15T00:36:05;7.00;99.90
25328;DHT22;13279;51.300;12.394;2023-04-15T00:38:37;7.00;99.90
25328;DHT22;13279;51.300;12.394;2023-04-15T00:41:07;7.00;99.90
25328;DHT22;13279;51.300;12.394;2023-04-15T00:43:37;7.00;99.90
25328;DHT22;13279;51.300;12.394;2023-04-15T00:46:12;7.00;99.90
25328;DHT22;13279;51.300;12.394;2023-04-15T00:48:52;6.90;99.90
25328;DHT22;13279;51.300;12.394;2023-04-15T00:51:24;7.00;99.90
25328;DHT22;13279;51.300;12.394;2023-04-15T00:53:55;6.90;99.90
25328;DHT22;13279;51.300;12.394;2023-04-15T00:56:35;7.00;99.90
25328;DHT22;13279;51.300;12.394;2023-04-15T00:59:14;6.90;99.90
25328;DHT22;13279;51.300;12.394;2023-04-15T01:01:43;6.90;99.90
25328;DHT22;13279;51.300;12.394;2023-04-15T01:04:19;6.90;99.90
25328;DHT22;13279;51.300;12.394;2023-04-15T01:06:52;6.90;99.90
25328;DHT22;13279;51.300;12.394;2023-04-15T01:09:24;6.90;99.90
25328;DHT22;13279;51.300;12.394;2023-04-15T01:11:54;6.90;99.90
25328;DHT22;13279;51.300;12.394;2023-04-15T01:14:27;6.90;99.90
25328;DHT22;13279;51.300;12.394;2023-04-15T01:17:02;6.90;99.90
25328;DHT22;13279;51.300;12.394;2023-04-15T01:19:36;6.90;99.90
25328;DHT22;13279;51.300;12.394;2023-04-15T01:22:22;6.90;99.90
25328;DHT22;13279;51.300;12.394;2023-04-15T01:24:57;6.90;99.90
25328;DHT22;13279;51.300;12.394;2023-04-15T01:27:38;6.90;99.90
25328;DHT22;13279;51.300;12.394;2023-04-15T01:30:10;6.90;99.90
25328;DHT22;13279;51.300;12.394;2023-04-15T01:32:47;6.90;99.90
25328;DHT22;13279;51.300;12.394;2023-04-15T01:35:21;6.90;99.90
25328;DHT22;13279;51.300;12.394;2023-04-15T01:38:07;6.90;99.90
25328;DHT22;13279;51.300;12.394;2023-04-15T01:40:37;6.90;99.90
25328;DHT22;13279;51.300;12.394;2023-04-15T01:43:08;6.90;99.90
25328;DHT22;13279;51.300;12.394;2023-04-15T01:45:44;6.90;99.90
25328;DHT22;13279;51.300;12.394;2023-04-15T01:48:15;6.90;99.90
25328;DHT22;13279;51.300;12.394;2023-04-15T01:50:51;6.90;99.90
25328;DHT22;13279;51.300;12.394;2023-04-15T01:53:25;6.90;99.90
25328;DHT22;13279;51.300;12.394;2023-04-15T01:55:55;6.90;99.90
25328;DHT22;13279;51.300;12.394;2023-04-15T01:58:29;6.90;99.90
25328;DHT22;13279;51.300;12.394;2023-04-15T02:01:06;6.90;99.90
25328;DHT22;13279;51.300;12.394;2023-04-15T02:03:39;6.90;99.90
25328;DHT22;13279;51.300;12.394;2023-04-15T02:06:16;6.80;99.90
25328;DHT22;13279;51.300;12.394;2023-04-15T02:08:47;6.80;99.90
25328;DHT22;13279;51.300;12.394;2023-04-15T02:11:24;6.90;99.90
25328;DHT22;13279;51.300;12.394;2023-04-15T02:14:11;6.80;99.90
25328;DHT22;13279;51.300;12.394;2023-04-15T02:16:48;6.90;99.90
25328;DHT22;13279;51.300;12.394;2023-04-15T02:19:22;6.80;99.90
25328;DHT22;13279;51.300;12.394;2023-04-15T02:22:04;6.80;99.90
25328;DHT22;13279;51.300;12.394;2023-04-15T02:24:34;6.80;99.90
25328;DHT22;13279;51.300;12.394;2023-04-15T02:27:04;6.80;99.90
25328;DHT22;13279;51.300;12.394;2023-04-15T02:29:40;6.80;99.90
25328;DHT22;13279;51.300;12.394;2023-04-15T02:32:11;6.80;99.90
25328;DHT22;13279;51.300;12.394;2023-04-15T02:34:48;6.70;99.90
25328;DHT22;13279;51.300;12.394;2023-04-15T02:37:24;6.70;99.90
25328;DHT22;13279;51.300;12.394;2023-04-15T02:40:02;6.70;99.90
25328;DHT22;13279;51.300;12.394;2023-04-15T02:42:40;6.70;99.90
25328;DHT22;13279;51.300;12.394;2023-04-15T02:45:17;6.70;99.90
25328;DHT22;13279;51.300;12.394;2023-04-15T02:47:54;6.70;99.90
25328;DHT22;13279;51.300;12.394;2023-04-15T02:50:26;6.70;99.90
25328;DHT22;13279;51.300;12.394;2023-04-15T02:53:01;6.80;99.90
25328;DHT22;13279;51.300;12.394;2023-04-15T02:55:39;6.70;99.90
25328;DHT22;13279;51.300;12.394;2023-04-15T02:58:10;6.70;99.90
25328;DHT22;13279;51.300;12.394;2023-04-15T03:00:55;6.70;99.90
25328;DHT22;13279;51.300;12.394;2023-04-15T03:03:28;6.70;99.90
25328;DHT22;13279;51.300;12.394;2023-04-15T03:06:11;6.70;99.90
25328;DHT22;13279;51.300;12.394;2023-04-15T03:08:41;6.70;99.90
25328;DHT22;13279;51.300;12.394;2023-04-15T03:11:20;6.70;99.90
25328;DHT22;13279;51.300;12.394;2023-04-15T03:14:00;6.70;99.90
25328;DHT22;13279;51.300;12.394;2023-04-15T03:16:39;6.70;99.90
25328;DHT22;13279;51.300;12.394;2023-04-15T03:19:18;6.70;99.90
25328;DHT22;13279;51.300;12.394;2023-04-15T03:21:46;6.70;99.90
25328;DHT22;13279;51.300;12.394;2023-04-15T03:24:23;6.70;99.90
25328;DHT22;13279;51.300;12.394;2023-04-15T03:27:10;6.60;99.90
25328;DHT22;13279;51.300;12.394;2023-04-15T03:29:56;6.60;99.90
25328;DHT22;13279;51.300;12.394;2023-04-15T03:35:34;6.70;99.90
25328;DHT22;13279;51.300;12.394;2023-04-15T03:38:15;6.70;99.90
25328;DHT22;13279;51.300;12.394;2023-04-15T03:43:47;6.70;99.90
25328;DHT22;13279;51.300;12.394;2023-04-15T03:46:34;6.70;99.90
25328;DHT22;13279;51.300;12.394;2023-04-15T03:49:05;6.60;99.90
25328;DHT22;13279;51.300;12.394;2023-04-15T03:51:36;6.70;99.90
25328;DHT22;13279;51.300;12.394;2023-04-15T03:54:21;6.70;99.90
25328;DHT22;13279;51.300;12.394;2023-04-15T03:57:01;6.70;99.90
25328;DHT22;13279;51.300;12.394;2023-04-15T03:59:38;6.70;99.90
25328;DHT22;13279;51.300;12.394;2023-04-15T04:02:08;6.60;99.90
25328;DHT22;13279;51.300;12.394;2023-04-15T04:04:46;6.70;99.90
25328;DHT22;13279;51.300;12.394;2023-04-15T04:07:16;6.60;99.90
25328;DHT22;13279;51.300;12.394;2023-04-15T04:09:53;6.70;99.90
25328;DHT22;13279;51.300;12.394;2023-04-15T04:12:29;6.70;99.90
25328;DHT22;13279;51.300;12.394;2023-04-15T04:14:59;6.60;99.90
25328;DHT22;13279;51.300;12.394;2023-04-15T04:17:32;6.70;99.90
25328;DHT22;13279;51.300;12.394;2023-04-15T04:20:08;6.70;99.90
25328;DHT22;13279;51.300;12.394;2023-04-15T04:22:43;6.70;99.90
25328;DHT22;13279;51.300;12.394;2023-04-15T04:25:16;6.70;99.90
25328;DHT22;13279;51.300;12.394;2023-04-15T04:27:46;6.70;99.90
25328;DHT22;13279;51.300;12.394;2023-04-15T04:30:19;6.70;99.90
25328;DHT22;13279;51.300;12.394;2023-04-15T04:32:54;6.70;99.90
25328;DHT22;13279;51.300;12.394;2023-04-15T04:35:34;6.60;99.90
25328;DHT22;13279;51.300;12.394;2023-04-15T04:38:05;6.70;99.90
25328;DHT22;13279;51.300;12.394;2023-04-15T04:40:54;6.70;99.90
25328;DHT22;13279;51.300;12.394;2023-04-15T04:43:30;6.70;99.90
25328;DHT22;13279;51.300;12.394;2023-04-15T04:46:08;6.70;99.90
25328;DHT22;13279;51.300;12.394;2023-04-15T04:48:47;6.70;99.90
25328;DHT22;13279;51.300;12.394;2023-04-15T04:51:20;6.70;99.90
25328;DHT22;13279;51.300;12.394;2023-04-15T04:53:50;6.60;99.90
25328;DHT22;13279;51.300;12.394;2023-04-15T04:56:30;6.70;99.90
25328;DHT22;13279;51.300;12.394;2023-04-15T04:59:00;6.70;99.90
25328;DHT22;13279;51.300;12.394;2023-04-15T05:01:39;6.70;99.90
25328;DHT22;13279;51.300;12.394;2023-04-15T05:04:18;6.70;99.90
25328;DHT22;13279;51.300;12.394;2023-04-15T05:06:53;6.80;99.90
25328;DHT22;13279;51.300;12.394;2023-04-15T05:09:32;6.80;99.90
25328;DHT22;13279;51.300;12.394;2023-04-15T05:12:02;6.80;99.90
25328;DHT22;13279;51.300;12.394;2023-04-15T05:14:33;6.80;99.90
25328;DHT22;13279;51.300;12.394;2023-04-15T05:17:03;6.80;99.90
25328;DHT22;13279;51.300;12.394;2023-04-15T05:19:32;6.80;99.90
25328;DHT22;13279;51.300;12.394;2023-04-15T05:22:17;6.80;99.90
25328;DHT22;13279;51.300;12.394;2023-04-15T05:24:47;6.80;99.90
25328;DHT22;13279;51.300;12.394;2023-04-15T05:27:20;6.80;99.90
25328;DHT22;13279;51.300;12.394;2023-04-15T05:29:53;6.80;99.90
25328;DHT22;13279;51.300;12.394;2023-04-15T05:32:24;6.90;99.90
25328;DHT22;13279;51.300;12.394;2023-04-15T05:34:59;6.80;99.90
25328;DHT22;13279;51.300;12.394;2023-04-15T05:37:29;6.80;99.90
25328;DHT22;13279;51.300;12.394;2023-04-15T05:40:05;6.80;99.90
25328;DHT22;13279;51.300;12.394;2023-04-15T05:42:39;6.80;99.90
25328;DHT22;13279;51.300;12.394;2023-04-15T05:45:21;6.80;99.90
25328;DHT22;13279;51.300;12.394;2023-04-15T05:47:52;6.80;99.90
25328;DHT22;13279;51.300;12.394;2023-04-15T05:50:23;6.90;99.90
25328;DHT22;13279;51.300;12.394;2023-04-15T05:52:53;6.90;99.90
25328;DHT22;13279;51.300;12.394;2023-04-15T05:55:26;6.90;99.90
25328;DHT22;13279;51.300;12.394;2023-04-15T05:58:01;6.90;99.90
25328;DHT22;13279;51.300;12.394;2023-04-15T06:00:38;6.90;99.90
25328;DHT22;13279;51.300;12.394;2023-04-15T06:03:09;7.00;99.90
25328;DHT22;13279;51.300;12.394;2023-04-15T06:05:43;7.00;99.90
25328;DHT22;13279;51.300;12.394;2023-04-15T06:08:20;7.00;99.90
25328;DHT22;13279;51.300;12.394;2023-04-15T06:10:50;6.90;99.90
25328;DHT22;13279;51.300;12.394;2023-04-15T06:13:28;7.00;99.90
25328;DHT22;13279;51.300;12.394;2023-04-15T06:16:00;7.00;99.90
25328;DHT22;13279;51.300;12.394;2023-04-15T06:18:28;7.00;99.90
25328;DHT22;13279;51.300;12.394;2023-04-15T06:20:56;7.00;99.90
25328;DHT22;13279;51.300;12.394;2023-04-15T06:23:26;7.00;99.90
25328;DHT22;13279;51.300;12.394;2023-04-15T06:25:53;7.10;99.90
25328;DHT22;13279;51.300;12.394;2023-04-15T06:28:21;7.10;99.90
25328;DHT22;13279;51.300;12.394;2023-04-15T06:30:48;7.00;99.90
25328;DHT22;13279;51.300;12.394;2023-04-15T06:33:16;7.10;99.90
25328;DHT22;13279;51.300;12.394;2023-04-15T06:35:44;7.10;99.90
25328;DHT22;13279;51.300;12.394;2023-04-15T06:38:11;7.10;99.90
25328;DHT22;13279;51.300;12.394;2023-04-15T06:40:40;7.10;99.90
25328;DHT22;13279;51.300;12.394;2023-04-15T06:43:07;7.10;99.90
25328;DHT22;13279;51.300;12.394;2023-04-15T06:45:35;7.10;99.90
25328;DHT22;13279;51.300;12.394;2023-04-15T06:48:04;7.10;99.90
25328;DHT22;13279;51.300;12.394;2023-04-15T06:50:31;7.20;99.90
25328;DHT22;13279;51.300;12.394;2023-04-15T06:52:58;7.20;99.90
25328;DHT22;13279;51.300;12.394;2023-04-15T06:55:26;7.20;99.90
25328;DHT22;13279;51.300;12.394;2023-04-15T06:57:55;7.20;99.90
25328;DHT22;13279;51.300;12.394;2023-04-15T07:00:22;7.20;99.90
25328;DHT22;13279;51.300;12.394;2023-04-15T07:02:50;7.20;99.90
25328;DHT22;13279;51.300;12.394;2023-04-15T07:05:18;7.20;99.90
25328;DHT22;13279;51.300;12.394;2023-04-15T07:07:45;7.20;99.90
25328;DHT22;13279;51.300;12.394;2023-04-15T07:10:13;7.20;99.90
25328;DHT22;13279;51.300;12.394;2023-04-15T07:12:40;7.30;99.90
25328;DHT22;13279;51.300;12.394;2023-04-15T07:15:10;7.30;99.90
25328;DHT22;13279;51.300;12.394;2023-04-15T07:17:37;7.30;99.90
25328;DHT22;13279;51.300;12.394;2023-04-15T07:20:06;7.30;99.90
25328;DHT22;13279;51.300;12.394;2023-04-15T07:22:34;7.30;99.90
25328;DHT22;13279;51.300;12.394;2023-04-15T07:25:02;7.40;99.90
25328;DHT22;13279;51.300;12.394;2023-04-15T07:27:29;7.30;99.90
25328;DHT22;13279;51.300;12.394;2023-04-15T07:29:57;7.30;99.90
25328;DHT22;13279;51.300;12.394;2023-04-15T07:32:26;7.40;99.90
25328;DHT22;13279;51.300;12.394;2023-04-15T07:34:53;7.40;99.90
25328;DHT22;13279;51.300;12.394;2023-04-15T07:37:21;7.40;99.90
25328;DHT22;13279;51.300;12.394;2023-04-15T07:39:48;7.40;99.90
25328;DHT22;13279;51.300;12.394;2023-04-15T07:42:16;7.50;99.90
25328;DHT22;13279;51.300;12.394;2023-04-15T07:44:50;7.50;99.90
25328;DHT22;13279;51.300;12.394;2023-04-15T07:47:18;7.50;99.90
25328;DHT22;13279;51.300;12.394;2023-04-15T07:49:47;7.50;99.90
25328;DHT22;13279;51.300;12.394;2023-04-15T07:52:16;7.50;99.90
25328;DHT22;13279;51.300;12.394;2023-04-15T07:54:44;7.50;99.90
25328;DHT22;13279;51.300;12.394;2023-04-15T07:57:12;7.60;99.90
25328;DHT22;13279;51.300;12.394;2023-04-15T07:59:39;7.60;99.90
25328;DHT22;13279;51.300;12.394;2023-04-15T08:02:07;7.60;99.90
25328;DHT22;13279;51.300;12.394;2023-04-15T08:04:34;7.60;99.90
25328;DHT22;13279;51.300;12.394;2023-04-15T08:07:03;7.60;99.90
25328;DHT22;13279;51.300;12.394;2023-04-15T08:09:31;7.60;99.90
25328;DHT22;13279;51.300;12.394;2023-04-15T08:11:59;7.60;99.90
25328;DHT22;13279;51.300;12.394;2023-04-15T08:14:27;7.60;99.90
25328;DHT22;13279;51.300;12.394;2023-04-15T08:16:54;7.60;99.90
25328;DHT22;13279;51.300;12.394;2023-04-15T08:19:22;7.60;99.90
25328;DHT22;13279;51.300;12.394;2023-04-15T08:21:50;7.70;99.90
25328;DHT22;13279;51.300;12.394;2023-04-15T08:24:19;7.70;99.90
25328;DHT22;13279;51.300;12.394;2023-04-15T08:26:46;7.70;99.90
25328;DHT22;13279;51.300;12.394;2023-04-15T08:29:14;7.70;99.90
25328;DHT22;13279;51.300;12.394;2023-04-15T08:31:42;7.70;99.90
25328;DHT22;13279;51.300;12.394;2023-04-15T08:34:10;7.80;99.90
25328;DHT22;13279;51.300;12.394;2023-04-15T08:36:38;7.80;99.90
25328;DHT22;13279;51.300;12.394;2023-04-15T08:39:05;7.80;99.90
25328;DHT22;13279;51.300;12.394;2023-04-15T08:41:40;7.80;99.90
25328;DHT22;13279;51.300;12.394;2023-04-15T08:44:12;7.90;99.90
25328;DHT22;13279;51.300;12.394;2023-04-15T08:46:40;7.90;99.90
25328;DHT22;13279;51.300;12.394;2023-04-15T08:49:10;7.90;99.90
25328;DHT22;13279;51.300;12.394;2023-04-15T08:51:39;8.00;99.90
25328;DHT22;13279;51.300;12.394;2023-04-15T08:54:07;8.00;99.90
25328;DHT22;13279;51.300;12.394;2023-04-15T08:56:38;8.00;99.90
25328;DHT22;13279;51.300;12.394;2023-04-15T08:59:06;8.00;99.90
25328;DHT22;13279;51.300;12.394;2023-04-15T09:01:34;8.10;99.90
25328;DHT22;13279;51.300;12.394;2023-04-15T09:04:02;8.10;99.90
25328;DHT22;13279;51.300;12.394;2023-04-15T09:06:31;8.10;99.90
25328;DHT22;13279;51.300;12.394;2023-04-15T09:08:59;8.10;99.90
25328;DHT22;13279;51.300;12.394;2023-04-15T09:11:26;8.20;99.90
25328;DHT22;13279;51.300;12.394;2023-04-15T09:13:57;8.20;99.90
25328;DHT22;13279;51.300;12.394;2023-04-15T09:16:25;8.20;99.90
25328;DHT22;13279;51.300;12.394;2023-04-15T09:18:53;8.20;99.90
25328;DHT22;13279;51.300;12.394;2023-04-15T09:21:22;8.30;99.90
25328;DHT22;13279;51.300;12.394;2023-04-15T09:23:55;8.30;99.90
25328;DHT22;13279;51.300;12.394;2023-04-15T09:26:33;8.30;99.90
25328;DHT22;13279;51.300;12.394;2023-04-15T09:29:07;8.30;99.90
25328;DHT22;13279;51.300;12.394;2023-04-15T09:31:35;8.40;99.90
25328;DHT22;13279;51.300;12.394;2023-04-15T09:34:02;8.40;99.90
25328;DHT22;13279;51.300;12.394;2023-04-15T09:36:37;8.40;99.90
25328;DHT22;13279;51.300;12.394;2023-04-15T09:39:17;8.40;99.90
25328;DHT22;13279;51.300;12.394;2023-04-15T09:41:45;8.50;99.90
25328;DHT22;13279;51.300;12.394;2023-04-15T09:44:24;8.50;99.90
25328;DHT22;13279;51.300;12.394;2023-04-15T09:46:52;8.50;99.90
25328;DHT22;13279;51.300;12.394;2023-04-15T09:49:19;8.50;99.90
25328;DHT22;13279;51.300;12.394;2023-04-15T09:51:47;8.50;99.90
25328;DHT22;13279;51.300;12.394;2023-04-15T09:54:18;8.60;99.90
25328;DHT22;13279;51.300;12.394;2023-04-15T09:56:47;8.60;99.90
25328;DHT22;13279;51.300;12.394;2023-04-15T09:59:15;8.60;99.90
25328;DHT22;13279;51.300;12.394;2023-04-15T10:01:45;8.60;99.90
25328;DHT22;13279;51.300;12.394;2023-04-15T10:04:13;8.70;99.90
25328;DHT22;13279;51.300;12.394;2023-04-15T10:06:41;8.70;99.90
25328;DHT22;13279;51.300;12.394;2023-04-15T10:09:09;8.70;99.90
25328;DHT22;13279;51.300;12.394;2023-04-15T10:11:37;8.70;99.90
25328;DHT22;13279;51.300;12.394;2023-04-15T10:14:06;8.80;99.90
25328;DHT22;13279;51.300;12.394;2023-04-15T10:16:38;8.80;99.90
25328;DHT22;13279;51.300;12.394;2023-04-15T10:19:10;8.90;99.90
25328;DHT22;13279;51.300;12.394;2023-04-15T10:21:38;8.90;99.90
25328;DHT22;13279;51.300;12.394;2023-04-15T10:24:07;9.00;99.90
25328;DHT22;13279;51.300;12.394;2023-04-15T10:26:35;9.00;99.90
25328;DHT22;13279;51.300;12.394;2023-04-15T10:29:03;9.00;99.90
25328;DHT22;13279;51.300;12.394;2023-04-15T10:31:31;9.00;99.90
25328;DHT22;13279;51.300;12.394;2023-04-15T10:33:58;9.00;99.90
25328;DHT22;13279;51.300;12.394;2023-04-15T10:36:30;9.10;99.90
25328;DHT22;13279;51.300;12.394;2023-04-15T10:38:58;9.10;99.90
25328;DHT22;13279;51.300;12.394;2023-04-15T10:41:26;9.10;99.90
25328;DHT22;13279;51.300;12.394;2023-04-15T10:44:00;9.10;99.90
25328;DHT22;13279;51.300;12.394;2023-04-15T10:46:35;9.20;99.90
25328;DHT22;13279;51.300;12.394;2023-04-15T10:49:07;9.20;99.90
25328;DHT22;13279;51.300;12.394;2023-04-15T10:51:39;9.20;99.90
25328;DHT22;13279;51.300;12.394;2023-04-15T10:54:11;9.20;99.90
25328;DHT22;13279;51.300;12.394;2023-04-15T10:56:41;9.30;99.90
25328;DHT22;13279;51.300;12.394;2023-04-15T10:59:09;9.30;99.90
25328;DHT22;13279;51.300;12.394;2023-04-15T11:01:54;9.30;99.90
25328;DHT22;13279;51.300;12.394;2023-04-15T11:04:53;9.40;99.90
25328;DHT22;13279;51.300;12.394;2023-04-15T11:07:38;9.40;99.90
25328;DHT22;13279;51.300;12.394;2023-04-15T11:13:21;9.50;99.90
25328;DHT22;13279;51.300;12.394;2023-04-15T11:15:55;9.60;99.90
25328;DHT22;13279;51.300;12.394;2023-04-15T11:18:24;9.70;99.90
25328;DHT22;13279;51.300;12.394;2023-04-15T11:20:54;9.60;99.90
25328;DHT22;13279;51.300;12.394;2023-04-15T11:23:33;9.60;99.90
25328;DHT22;13279;51.300;12.394;2023-04-15T11:26:02;9.60;99.90
25328;DHT22;13279;51.300;12.394;2023-04-15T11:28:31;9.60;99.90
25328;DHT22;13279;51.300;12.394;2023-04-15T11:31:06;9.60;99.90
25328;DHT22;13279;51.300;12.394;2023-04-15T11:33:36;9.60;99.90
25328;DHT22;13279;51.300;12.394;2023-04-15T11:36:03;9.60;99.90
25328;DHT22;13279;51.300;12.394;2023-04-15T11:38:33;9.60;99.90
25328;DHT22;13279;51.300;12.394;2023-04-15T11:41:01;9.60;99.90
25328;DHT22;13279;51.300;12.394;2023-04-15T11:43:31;9.70;99.90
25328;DHT22;13279;51.300;12.394;2023-04-15T11:46:01;9.70;99.90
25328;DHT22;13279;51.300;12.394;2023-04-15T11:48:31;9.70;99.90
25328;DHT22;13279;51.300;12.394;2023-04-15T11:50:59;9.70;99.90
25328;DHT22;13279;51.300;12.394;2023-04-15T11:53:38;9.70;99.90
25328;DHT22;13279;51.300;12.394;2023-04-15T11:56:07;9.70;99.90
25328;DHT22;13279;51.300;12.394;2023-04-15T11:58:36;9.70;99.90
25328;DHT22;13279;51.300;12.394;2023-04-15T12:01:05;9.70;99.90
25328;DHT22;13279;51.300;12.394;2023-04-15T12:03:37;9.70;99.90
25328;DHT22;13279;51.300;12.394;2023-04-15T12:06:10;9.70;99.90
25328;DHT22;13279;51.300;12.394;2023-04-15T12:08:56;9.80;99.90
25328;DHT22;13279;51.300;12.394;2023-04-15T12:11:36;9.80;99.90
25328;DHT22;13279;51.300;12.394;2023-04-15T12:14:06;9.80;99.90
25328;DHT22;13279;51.300;12.394;2023-04-15T12:16:36;9.80;99.90
25328;DHT22;13279;51.300;12.394;2023-04-15T12:19:06;9.80;99.90
25328;DHT22;13279;51.300;12.394;2023-04-15T12:21:37;9.80;99.90
25328;DHT22;13279;51.300;12.394;2023-04-15T12:24:08;9.80;99.90
25328;DHT22;13279;51.300;12.394;2023-04-15T12:26:41;9.80;99.90
25328;DHT22;13279;51.300;12.394;2023-04-15T12:29:11;9.80;99.90
25328;DHT22;13279;51.300;12.394;2023-04-15T12:31:47;9.80;99.90
25328;DHT22;13279;51.300;12.394;2023-04-15T12:34:16;9.80;99.90
25328;DHT22;13279;51.300;12.394;2023-04-15T12:36:44;9.90;99.90
25328;DHT22;13279;51.300;12.394;2023-04-15T12:39:13;9.90;99.90
25328;DHT22;13279;51.300;12.394;2023-04-15T12:41:41;9.90;99.90
25328;DHT22;13279;51.300;12.394;2023-04-15T12:44:08;9.90;99.90
25328;DHT22;13279;51.300;12.394;2023-04-15T12:46:35;9.90;99.90
25328;DHT22;13279;51.300;12.394;2023-04-15T12:49:04;9.90;99.90
25328;DHT22;13279;51.300;12.394;2023-04-15T12:51:31;10.00;99.90
25328;DHT22;13279;51.300;12.394;2023-04-15T12:53:59;10.00;99.90
25328;DHT22;13279;51.300;12.394;2023-04-15T12:56:27;10.00;99.90
25328;DHT22;13279;51.300;12.394;2023-04-15T12:58:55;10.10;99.90
25328;DHT22;13279;51.300;12.394;2023-04-15T13:01:22;10.00;99.90
25328;DHT22;13279;51.300;12.394;2023-04-15T13:03:50;10.10;99.90
25328;DHT22;13279;51.300;12.394;2023-04-15T13:06:17;10.10;99.90
25328;DHT22;13279;51.300;12.394;2023-04-15T13:08:45;10.20;99.90
25328;DHT22;13279;51.300;12.394;2023-04-15T13:11:12;10.30;99.90
25328;DHT22;13279;51.300;12.394;2023-04-15T13:13:43;10.30;99.90
25328;DHT22;13279;51.300;12.394;2023-04-15T13:16:11;10.30;99.90
25328;DHT22;13279;51.300;12.394;2023-04-15T13:18:38;10.30;99.90
25328;DHT22;13279;51.300;12.394;2023-04-15T13:21:06;10.30;99.90
25328;DHT22;13279;51.300;12.394;2023-04-15T13:23:36;10.30;99.90
25328;DHT22;13279;51.300;12.394;2023-04-15T13:26:03;10.30;99.90
25328;DHT22;13279;51.300;12.394;2023-04-15T13:28:31;10.20;99.90
25328;DHT22;13279;51.300;12.394;2023-04-15T13:30:59;10.30;99.90
25328;DHT22;13279;51.300;12.394;2023-04-15T13:33:27;10.40;99.90
25328;DHT22;13279;51.300;12.394;2023-04-15T13:35:54;10.30;99.90
25328;DHT22;13279;51.300;12.394;2023-04-15T13:38:23;10.40;99.90
25328;DHT22;13279;51.300;12.394;2023-04-15T13:40:51;10.40;99.90
25328;DHT22;13279;51.300;12.394;2023-04-15T13:43:18;10.50;99.90
25328;DHT22;13279;51.300;12.394;2023-04-15T13:45:46;10.50;99.90
25328;DHT22;13279;51.300;12.394;2023-04-15T13:48:15;10.50;99.90
25328;DHT22;13279;51.300;12.394;2023-04-15T13:50:43;10.50;99.90
25328;DHT22;13279;51.300;12.394;2023-04-15T13:53:10;10.40;99.90
25328;DHT22;13279;51.300;12.394;2023-04-15T13:55:38;10.40;99.90
25328;DHT22;13279;51.300;12.394;2023-04-15T13:58:07;10.40;99.90
25328;DHT22;13279;51.300;12.394;2023-04-15T14:00:35;10.40;99.90
25328;DHT22;13279;51.300;12.394;2023-04-15T14:03:03;10.40;99.90
25328;DHT22;13279;51.300;12.394;2023-04-15T14:05:32;10.40;99.90
25328;DHT22;13279;51.300;12.394;2023-04-15T14:08:00;10.30;99.90
25328;DHT22;13279;51.300;12.394;2023-04-15T14:10:27;10.40;99.90
25328;DHT22;13279;51.300;12.394;2023-04-15T14:12:54;10.30;99.90
25328;DHT22;13279;51.300;12.394;2023-04-15T14:15:22;10.40;99.90
25328;DHT22;13279;51.300;12.394;2023-04-15T14:17:50;10.40;99.90
25328;DHT22;13279;51.300;12.394;2023-04-15T14:20:18;10.40;99.90
25328;DHT22;13279;51.300;12.394;2023-04-15T14:22:47;10.50;99.90
25328;DHT22;13279;51.300;12.394;2023-04-15T14:25:14;10.40;99.90
25328;DHT22;13279;51.300;12.394;2023-04-15T14:27:43;10.40;99.90
25328;DHT22;13279;51.300;12.394;2023-04-15T14:30:10;10.50;99.90
25328;DHT22;13279;51.300;12.394;2023-04-15T14:32:39;10.40;99.90
25328;DHT22;13279;51.300;12.394;2023-04-15T14:35:06;10.40;99.90
25328;DHT22;13279;51.300;12.394;2023-04-15T14:37:34;10.40;99.90
25328;DHT22;13279;51.300;12.394;2023-04-15T14:40:03;10.40;99.90
25328;DHT22;13279;51.300;12.394;2023-04-15T14:42:31;10.30;99.90
25328;DHT22;13279;51.300;12.394;2023-04-15T14:44:58;10.30;99.90
25328;DHT22;13279;51.300;12.394;2023-04-15T14:47:26;10.30;99.90
25328;DHT22;13279;51.300;12.394;2023-04-15T14:49:53;10.30;99.90
25328;DHT22;13279;51.300;12.394;2023-04-15T14:52:21;10.30;99.90
25328;DHT22;13279;51.300;12.394;2023-04-15T14:54:49;10.40;99.90
25328;DHT22;13279;51.300;12.394;2023-04-15T14:57:18;10.40;99.90
25328;DHT22;13279;51.300;12.394;2023-04-15T14:59:45;10.40;99.90
25328;DHT22;13279;51.300;12.394;2023-04-15T15:02:13;10.50;99.90
25328;DHT22;13279;51.300;12.394;2023-04-15T15:04:40;10.50;99.90
25328;DHT22;13279;51.300;12.394;2023-04-15T15:07:07;10.50;99.90
25328;DHT22;13279;51.300;12.394;2023-04-15T15:09:35;10.60;99.90
25328;DHT22;13279;51.300;12.394;2023-04-15T15:12:02;10.60;99.90
25328;DHT22;13279;51.300;12.394;2023-04-15T15:14:31;10.70;99.90
25328;DHT22;13279;51.300;12.394;2023-04-15T15:16:58;10.70;99.90
25328;DHT22;13279;51.300;12.394;2023-04-15T15:19:26;10.70;99.90
25328;DHT22;13279;51.300;12.394;2023-04-15T15:21:54;10.70;99.90
25328;DHT22;13279;51.300;12.394;2023-04-15T15:24:25;10.80;99.90
25328;DHT22;13279;51.300;12.394;2023-04-15T15:26:53;10.80;99.90
25328;DHT22;13279;51.300;12.394;2023-04-15T15:29:21;10.70;99.90
25328;DHT22;13279;51.300;12.394;2023-04-15T15:31:51;10.70;99.90
25328;DHT22;13279;51.300;12.394;2023-04-15T15:34:18;10.60;99.90
25328;DHT22;13279;51.300;12.394;2023-04-15T15:36:45;10.60;99.90
25328;DHT22;13279;51.300;12.394;2023-04-15T15:39:13;10.60;99.90
25328;DHT22;13279;51.300;12.394;2023-04-15T15:41:40;10.60;99.90
25328;DHT22;13279;51.300;12.394;2023-04-15T15:44:08;10.70;99.90
25328;DHT22;13279;51.300;12.394;2023-04-15T15:46:35;10.70;99.90
25328;DHT22;13279;51.300;12.394;2023-04-15T15:49:04;10.70;99.90
25328;DHT22;13279;51.300;12.394;2023-04-15T15:51:32;10.70;99.90
25328;DHT22;13279;51.300;12.394;2023-04-15T15:53:59;10.70;99.90
25328;DHT22;13279;51.300;12.394;2023-04-15T15:56:27;10.70;99.90
25328;DHT22;13279;51.300;12.394;2023-04-15T15:58:54;10.70;99.90
25328;DHT22;13279;51.300;12.394;2023-04-15T16:01:22;10.70;99.90